Time;durP1;ratioP1;P1;durP2;ratioP2;P2;SDS_P1;SDS_P2;PMS_P1;PMS_P2;Temp;Humidity;BMP_temperature;BMP_pressure;BME280_temperature;BME280_humidity;BME280_pressure;Samples;Min_cycle;Max_cycle;Signal;HPM_P1;HPM_P2
2021/10/23 00:02:14;;;;;;;5.87;2.63;;;;;;;;;;769481;181;942729;-64
2021/10/23 00:04:39;;;;;;;9.50;3.63;;;;;;;;;;770439;182;922444;-65
2021/10/23 00:07:06;;;;;;;7.55;3.03;;;;;;;;;;768829;182;918139;-65
2021/10/23 00:09:31;;;;;;;8.10;2.67;;;;;;;;;;772536;181;916512;-65
2021/10/23 00:11:57;;;;;;;8.43;3.03;;;;;;;;;;766898;182;915819;-64
2021/10/23 00:14:23;;;;;;;10.13;3.03;;;;;;;;;;767564;182;912035;-64
2021/10/23 00:16:49;;;;;;;8.27;3.03;;;;;;;;;;766295;182;912432;-64
2021/10/23 00:19:14;;;;;;;4.53;2.57;;;;;;;;;;774825;182;908582;-65
2021/10/23 00:21:40;;;;;;;6.43;2.80;;;;;;;;;;765883;182;915313;-65
2021/10/23 00:24:06;;;;;;;8.80;3.30;;;;;;;;;;763761;182;908041;-65
2021/10/23 00:26:32;;;;;;;6.87;2.80;;;;;;;;;;774094;182;919889;-65
2021/10/23 00:28:58;;;;;;;4.73;2.60;;;;;;;;;;767902;182;919351;-64
2021/10/23 00:31:24;;;;;;;5.90;2.40;;;;;;;;;;764399;182;918911;-65
2021/10/23 00:33:49;;;;;;;7.77;3.17;;;;;;;;;;770237;182;918966;-64
2021/10/23 00:36:15;;;;;;;8.20;3.30;;;;;;;;;;765957;182;919409;-65
2021/10/23 00:38:41;;;;;;;7.70;2.90;;;;;;;;;;765894;182;1212506;-65
2021/10/23 00:41:07;;;;;;;6.13;2.47;;;;;;;;;;765231;182;918410;-64
2021/10/23 00:43:33;;;;;;;5.80;2.63;;;;;;;;;;769695;182;919113;-65
2021/10/23 00:45:59;;;;;;;6.80;2.73;;;;;;;;;;765865;182;919319;-65
2021/10/23 00:48:24;;;;;;;6.63;2.57;;;;;;;;;;765110;182;919439;-65
2021/10/23 00:50:50;;;;;;;5.30;2.50;;;;;;;;;;769715;180;918934;-65
2021/10/23 00:53:16;;;;;;;8.23;3.20;;;;;;;;;;769105;181;919425;-65
2021/10/23 00:55:42;;;;;;;11.03;2.90;;;;;;;;;;771341;180;919456;-65
2021/10/23 00:58:08;;;;;;;6.40;2.25;;;;;;;;;;776862;182;919092;-65
2021/10/23 01:00:34;;;;;;;6.33;2.50;;;;;;;;;;771642;182;919322;-64
2021/10/23 01:03:00;;;;;;;7.10;2.80;;;;;;;;;;769603;182;919587;-64
2021/10/23 01:05:25;;;;;;;7.68;5.07;;;;;;;;;;766610;182;919975;-64
2021/10/23 01:07:51;;;;;;;5.40;2.80;;;;;;;;;;766841;182;919877;-65
2021/10/23 01:10:17;;;;;;;7.23;2.00;;;;;;;;;;767053;182;919880;-64
2021/10/23 01:12:43;;;;;;;7.75;2.67;;;;;;;;;;766365;182;919117;-65
2021/10/23 01:15:14;;;;;;;13.10;4.40;;;;;;;;;;773833;182;919984;-65
2021/10/23 01:17:40;;;;;;;4.13;2.30;;;;;;;;;;768436;182;919588;-64
2021/10/23 01:20:06;;;;;;;5.43;2.77;;;;;;;;;;768976;182;919446;-64
2021/10/23 01:22:32;;;;;;;7.67;2.60;;;;;;;;;;771702;182;919249;-64
2021/10/23 01:24:58;;;;;;;4.93;2.83;;;;;;;;;;765116;182;921791;-65
2021/10/23 01:27:24;;;;;;;6.37;2.90;;;;;;;;;;766827;182;918350;-64
2021/10/23 01:29:50;;;;;;;8.13;2.63;;;;;;;;;;766454;182;919537;-64
2021/10/23 01:32:16;;;;;;;9.53;3.50;;;;;;;;;;773410;182;919905;-64
2021/10/23 01:34:42;;;;;;;4.83;2.40;;;;;;;;;;767053;182;919363;-64
2021/10/23 01:37:07;;;;;;;8.37;2.93;;;;;;;;;;769943;182;917749;-64
2021/10/23 01:39:33;;;;;;;7.03;2.90;;;;;;;;;;771258;182;919466;-64
2021/10/23 01:41:59;;;;;;;9.47;2.10;;;;;;;;;;765080;182;919259;-64
2021/10/23 01:44:25;;;;;;;11.02;2.78;;;;;;;;;;765594;182;919938;-64
2021/10/23 01:46:51;;;;;;;7.10;3.40;;;;;;;;;;773381;182;918702;-65
2021/10/23 01:49:17;;;;;;;6.20;2.70;;;;;;;;;;768063;182;923151;-65
2021/10/23 01:51:43;;;;;;;4.80;2.75;;;;;;;;;;768059;182;919470;-65
2021/10/23 01:54:08;;;;;;;6.90;2.93;;;;;;;;;;768497;182;918825;-64
2021/10/23 01:56:34;;;;;;;5.43;2.87;;;;;;;;;;772884;182;886932;-65
2021/10/23 01:59:00;;;;;;;8.67;4.00;;;;;;;;;;766634;182;915879;-64
2021/10/23 02:01:26;;;;;;;5.10;2.50;;;;;;;;;;769027;182;916495;-65
2021/10/23 02:03:52;;;;;;;8.00;2.50;;;;;;;;;;776732;180;919500;-64
2021/10/23 02:06:18;;;;;;;4.77;3.23;;;;;;;;;;769732;181;919850;-66
2021/10/23 02:08:44;;;;;;;17.10;2.97;;;;;;;;;;770692;182;919326;-64
2021/10/23 02:11:09;;;;;;;7.20;3.00;;;;;;;;;;776367;182;919062;-64
2021/10/23 02:13:35;;;;;;;9.40;3.90;;;;;;;;;;770461;182;919547;-64
2021/10/23 02:16:01;;;;;;;8.55;3.15;;;;;;;;;;769720;182;1022296;-65
2021/10/23 02:18:27;;;;;;;6.20;3.23;;;;;;;;;;771252;182;918915;-64
2021/10/23 02:20:53;;;;;;;7.90;2.63;;;;;;;;;;758181;183;920005;-64
2021/10/23 02:23:19;;;;;;;9.43;3.53;;;;;;;;;;764599;182;919236;-64
2021/10/23 02:25:44;;;;;;;7.00;3.72;;;;;;;;;;770300;182;1020976;-64
2021/10/23 02:28:10;;;;;;;6.50;2.70;;;;;;;;;;773731;182;919060;-64
2021/10/23 02:30:36;;;;;;;5.40;2.60;;;;;;;;;;766165;182;919666;-64
2021/10/23 02:33:02;;;;;;;8.63;2.70;;;;;;;;;;767870;182;919171;-64
2021/10/23 02:35:28;;;;;;;7.13;3.17;;;;;;;;;;772447;182;918642;-65
2021/10/23 02:37:54;;;;;;;5.10;2.60;;;;;;;;;;768942;182;919679;-65
2021/10/23 02:40:19;;;;;;;5.13;2.90;;;;;;;;;;769758;182;920802;-65
2021/10/23 02:42:45;;;;;;;9.07;2.47;;;;;;;;;;774853;182;919631;-64
2021/10/23 02:45:11;;;;;;;7.70;3.37;;;;;;;;;;765679;182;919405;-65
2021/10/23 02:47:37;;;;;;;6.13;3.30;;;;;;;;;;767176;182;921144;-65
2021/10/23 02:50:04;;;;;;;6.33;2.83;;;;;;;;;;765906;182;919212;-65
2021/10/23 02:52:29;;;;;;;12.93;3.80;;;;;;;;;;771331;182;919032;-65
2021/10/23 02:54:55;;;;;;;7.33;2.60;;;;;;;;;;767064;182;945093;-66
2021/10/23 02:57:21;;;;;;;6.67;2.40;;;;;;;;;;765998;182;919194;-66
2021/10/23 02:59:47;;;;;;;7.60;3.00;;;;;;;;;;772478;182;951772;-65
2021/10/23 03:02:13;;;;;;;6.85;2.75;;;;;;;;;;766945;182;919308;-65
2021/10/23 03:04:39;;;;;;;10.60;3.40;;;;;;;;;;768874;182;919419;-65
2021/10/23 03:07:04;;;;;;;6.10;2.87;;;;;;;;;;773489;182;1022016;-65
2021/10/23 03:09:31;;;;;;;11.40;3.67;;;;;;;;;;765756;182;919667;-64
2021/10/23 03:11:56;;;;;;;7.37;3.10;;;;;;;;;;768613;182;919487;-64
2021/10/23 03:14:22;;;;;;;8.23;3.75;;;;;;;;;;769292;180;919858;-65
2021/10/23 03:16:48;;;;;;;6.83;3.53;;;;;;;;;;780830;179;919340;-65
2021/10/23 03:19:14;;;;;;;9.00;3.93;;;;;;;;;;768024;181;918672;-66
2021/10/23 03:21:39;;;;;;;7.40;4.00;;;;;;;;;;768198;182;919398;-64
2021/10/23 03:24:05;;;;;;;7.57;4.67;;;;;;;;;;774948;182;918631;-65
2021/10/23 03:26:31;;;;;;;9.47;4.37;;;;;;;;;;767857;182;918112;-65
2021/10/23 03:28:57;;;;;;;6.60;4.07;;;;;;;;;;769177;182;918705;-66
2021/10/23 03:31:23;;;;;;;8.47;4.50;;;;;;;;;;772153;182;919457;-64
2021/10/23 03:33:49;;;;;;;8.07;4.47;;;;;;;;;;765320;182;921106;-65
2021/10/23 03:36:15;;;;;;;12.43;5.50;;;;;;;;;;766520;182;1039184;-64
2021/10/23 03:38:41;;;;;;;12.85;4.45;;;;;;;;;;769286;182;920431;-64
2021/10/23 03:41:07;;;;;;;9.30;3.70;;;;;;;;;;778205;179;920175;-65
2021/10/23 03:43:32;;;;;;;5.87;3.53;;;;;;;;;;769818;182;916982;-64
2021/10/23 03:45:58;;;;;;;8.93;4.12;;;;;;;;;;770017;182;919163;-65
2021/10/23 03:48:24;;;;;;;6.50;2.90;;;;;;;;;;765171;182;918179;-65
2021/10/23 03:50:50;;;;;;;6.77;4.40;;;;;;;;;;767495;182;919865;-65
2021/10/23 03:53:16;;;;;;;5.67;2.80;;;;;;;;;;763716;182;919729;-65
2021/10/23 03:55:42;;;;;;;6.03;3.03;;;;;;;;;;774196;182;919477;-65
2021/10/23 03:58:10;;;;;;;7.93;3.80;;;;;;;;;;768740;182;919768;-64
2021/10/23 04:00:33;;;;;;;7.13;4.30;;;;;;;;;;767966;181;918535;-64
2021/10/23 04:02:59;;;;;;;7.50;3.13;;;;;;;;;;774570;182;919046;-65
2021/10/23 04:05:25;;;;;;;9.30;3.10;;;;;;;;;;767748;182;951959;-65
2021/10/23 04:07:51;;;;;;;8.93;3.30;;;;;;;;;;768370;182;916266;-65
2021/10/23 04:10:17;;;;;;;5.80;3.90;;;;;;;;;;769299;182;926240;-65
2021/10/23 04:12:42;;;;;;;7.80;3.37;;;;;;;;;;767940;182;1022980;-64
2021/10/23 04:15:09;;;;;;;8.50;4.03;;;;;;;;;;769276;182;1017959;-65
2021/10/23 04:17:34;;;;;;;7.73;3.47;;;;;;;;;;769002;182;920698;-65
2021/10/23 04:20:00;;;;;;;7.00;3.20;;;;;;;;;;774109;182;915988;-65
2021/10/23 04:22:26;;;;;;;6.67;3.30;;;;;;;;;;770409;182;916506;-65
2021/10/23 04:24:52;;;;;;;10.25;4.22;;;;;;;;;;764474;182;915479;-65
2021/10/23 04:27:18;;;;;;;8.93;3.73;;;;;;;;;;772071;180;919227;-65
2021/10/23 04:29:43;;;;;;;9.07;4.33;;;;;;;;;;769390;181;919493;-64
2021/10/23 04:32:09;;;;;;;7.30;3.43;;;;;;;;;;769277;182;1021454;-65
2021/10/23 04:34:36;;;;;;;10.30;3.97;;;;;;;;;;769972;182;918468;-65
2021/10/23 04:37:01;;;;;;;7.47;3.20;;;;;;;;;;767739;182;919242;-65
2021/10/23 04:39:27;;;;;;;7.03;3.90;;;;;;;;;;767708;182;919355;-65
2021/10/23 04:41:53;;;;;;;7.43;3.70;;;;;;;;;;766062;182;917690;-65
2021/10/23 04:44:18;;;;;;;10.70;4.13;;;;;;;;;;770446;182;919074;-65
2021/10/23 04:46:44;;;;;;;9.00;4.00;;;;;;;;;;765633;182;919793;-63
2021/10/23 04:49:10;;;;;;;10.87;4.20;;;;;;;;;;766383;182;906743;-67
2021/10/23 04:51:36;;;;;;;7.23;3.53;;;;;;;;;;773713;182;917878;-64
2021/10/23 04:54:02;;;;;;;12.17;4.10;;;;;;;;;;767738;182;919454;-65
2021/10/23 04:56:28;;;;;;;5.70;3.63;;;;;;;;;;768792;182;920610;-65
2021/10/23 04:58:54;;;;;;;9.63;3.40;;;;;;;;;;767432;182;919397;-63
2021/10/23 05:01:20;;;;;;;5.77;3.60;;;;;;;;;;766948;182;918773;-66
2021/10/23 05:03:46;;;;;;;9.43;3.80;;;;;;;;;;767857;182;919644;-65
2021/10/23 05:06:12;;;;;;;9.83;4.00;;;;;;;;;;765484;182;918576;-65
2021/10/23 05:08:38;;;;;;;7.20;3.83;;;;;;;;;;770656;182;919221;-65
2021/10/23 05:11:03;;;;;;;6.63;3.60;;;;;;;;;;768191;182;919703;-64
2021/10/23 05:13:29;;;;;;;8.37;3.37;;;;;;;;;;763389;182;919862;-65
2021/10/23 05:15:55;;;;;;;7.90;3.90;;;;;;;;;;773605;182;918861;-66
2021/10/23 05:18:21;;;;;;;8.47;2.97;;;;;;;;;;766784;182;919012;-65
2021/10/23 05:20:47;;;;;;;5.73;3.27;;;;;;;;;;762769;182;918814;-65
2021/10/23 05:23:12;;;;;;;8.30;3.50;;;;;;;;;;773181;182;918554;-64
2021/10/23 05:25:38;;;;;;;5.83;3.10;;;;;;;;;;765902;182;1021838;-65
2021/10/23 05:28:04;;;;;;;7.30;3.50;;;;;;;;;;769548;182;920521;-65
2021/10/23 05:30:30;;;;;;;10.03;3.70;;;;;;;;;;763934;182;919393;-64
2021/10/23 05:32:56;;;;;;;5.20;3.47;;;;;;;;;;772002;182;919602;-65
2021/10/23 05:35:22;;;;;;;6.33;4.20;;;;;;;;;;767585;182;919099;-65
2021/10/23 05:37:49;;;;;;;10.68;3.62;;;;;;;;;;770214;180;919386;-65
2021/10/23 05:40:13;;;;;;;7.30;4.17;;;;;;;;;;771923;181;918879;-64
2021/10/23 05:42:39;;;;;;;5.77;2.87;;;;;;;;;;766994;181;1016350;-65
2021/10/23 05:45:06;;;;;;;10.90;3.60;;;;;;;;;;767841;182;919072;-65
2021/10/23 05:47:32;;;;;;;4.77;3.17;;;;;;;;;;772875;182;919307;-66
2021/10/23 05:49:57;;;;;;;7.63;3.30;;;;;;;;;;768224;182;919419;-65
2021/10/23 05:52:24;;;;;;;7.07;2.97;;;;;;;;;;765321;182;918793;-65
2021/10/23 05:54:49;;;;;;;10.63;3.80;;;;;;;;;;766295;182;919414;-65
2021/10/23 05:57:15;;;;;;;8.27;3.50;;;;;;;;;;768469;182;916394;-64
2021/10/23 05:59:42;;;;;;;5.37;2.90;;;;;;;;;;767589;182;919729;-65
2021/10/23 06:02:21;;;;;;;12.83;3.50;;;;;;;;;;768555;182;919573;-65
2021/10/23 06:04:36;;;;;;;7.90;3.40;;;;;;;;;;770651;182;812963;-63
2021/10/23 06:07:00;;;;;;;7.80;3.90;;;;;;;;;;765898;182;918899;-64
2021/10/23 06:09:26;;;;;;;6.47;3.40;;;;;;;;;;769326;182;919291;-64
2021/10/23 06:11:55;;;;;;;12.07;3.97;;;;;;;;;;770253;181;919585;-64
2021/10/23 06:14:18;;;;;;;11.13;4.63;;;;;;;;;;767683;182;924012;-64
2021/10/23 06:16:44;;;;;;;6.60;3.93;;;;;;;;;;764693;182;920073;-64
2021/10/23 06:19:10;;;;;;;8.70;4.60;;;;;;;;;;766997;182;919380;-64
2021/10/23 06:21:35;;;;;;;11.70;5.07;;;;;;;;;;772562;182;918145;-64
2021/10/23 06:24:01;;;;;;;6.32;3.45;;;;;;;;;;768742;182;917612;-63
2021/10/23 06:26:27;;;;;;;7.27;3.70;;;;;;;;;;766886;182;1021880;-64
2021/10/23 06:28:53;;;;;;;12.57;4.60;;;;;;;;;;772469;182;919023;-63
2021/10/23 06:31:19;;;;;;;8.63;3.57;;;;;;;;;;766164;182;919284;-64
2021/10/23 06:33:45;;;;;;;10.03;3.83;;;;;;;;;;767351;182;1009007;-64
2021/10/23 06:36:10;;;;;;;10.13;3.40;;;;;;;;;;772612;182;918655;-64
2021/10/23 06:38:36;;;;;;;5.77;3.13;;;;;;;;;;764496;182;918996;-64
2021/10/23 06:41:02;;;;;;;8.10;3.60;;;;;;;;;;772946;182;633565;-64
2021/10/23 06:43:28;;;;;;;6.80;3.43;;;;;;;;;;770303;182;627425;-65
2021/10/23 06:45:54;;;;;;;9.73;3.83;;;;;;;;;;778359;179;628184;-64
2021/10/23 06:48:20;;;;;;;15.67;3.57;;;;;;;;;;770238;182;630206;-64
2021/10/23 06:50:45;;;;;;;15.57;3.93;;;;;;;;;;774173;180;627567;-64
2021/10/23 06:53:11;;;;;;;14.20;4.30;;;;;;;;;;775608;181;616275;-64
2021/10/23 06:55:37;;;;;;;6.70;2.90;;;;;;;;;;771092;182;919246;-64
2021/10/23 06:58:03;;;;;;;11.13;2.40;;;;;;;;;;763793;182;920337;-64
2021/10/23 07:00:29;;;;;;;6.87;2.33;;;;;;;;;;774386;182;630884;-64
2021/10/23 07:02:55;;;;;;;6.97;2.67;;;;;;;;;;772012;182;919822;-64
2021/10/23 07:05:23;;;;;;;9.40;4.20;;;;;;;;;;766920;181;915393;-65
2021/10/23 07:07:46;;;;;;;8.18;3.47;;;;;;;;;;772726;182;916862;-64
2021/10/23 07:10:12;;;;;;;10.80;3.57;;;;;;;;;;765575;182;950261;-64
2021/10/23 07:12:38;;;;;;;6.27;2.63;;;;;;;;;;765959;182;919389;-64
2021/10/23 07:15:04;;;;;;;7.03;2.70;;;;;;;;;;769076;182;920506;-64
2021/10/23 07:17:30;;;;;;;5.03;2.47;;;;;;;;;;770058;182;1022677;-64
2021/10/23 07:19:56;;;;;;;7.90;2.50;;;;;;;;;;766727;182;919893;-65
2021/10/23 07:22:23;;;;;;;9.55;2.95;;;;;;;;;;768155;182;919279;-64
2021/10/23 07:24:47;;;;;;;7.50;2.90;;;;;;;;;;771685;182;919465;-65
2021/10/23 07:27:13;;;;;;;6.13;3.13;;;;;;;;;;768251;182;919976;-65
2021/10/23 07:29:39;;;;;;;4.75;2.92;;;;;;;;;;767353;182;920449;-65
2021/10/23 07:32:05;;;;;;;6.07;3.00;;;;;;;;;;772068;182;918929;-66
2021/10/23 07:34:32;;;;;;;11.73;2.80;;;;;;;;;;770537;182;920336;-66
2021/10/23 07:36:58;;;;;;;10.40;3.33;;;;;;;;;;767990;182;1021321;-65
2021/10/23 07:39:23;;;;;;;13.53;3.70;;;;;;;;;;765514;182;928812;-66
2021/10/23 07:41:49;;;;;;;6.05;2.58;;;;;;;;;;771275;182;993762;-66
2021/10/23 07:44:15;;;;;;;11.82;3.17;;;;;;;;;;763532;182;918811;-66
2021/10/23 07:46:43;;;;;;;7.30;2.70;;;;;;;;;;768681;182;917320;-69
2021/10/23 07:49:07;;;;;;;11.10;3.70;;;;;;;;;;772514;182;632684;-67
2021/10/23 07:51:33;;;;;;;8.82;3.17;;;;;;;;;;766780;181;919019;-67
2021/10/23 07:53:59;;;;;;;8.37;2.70;;;;;;;;;;764609;180;939161;-68
2021/10/23 07:56:25;;;;;;;11.30;2.50;;;;;;;;;;769463;181;917227;-67
2021/10/23 07:58:51;;;;;;;6.43;2.87;;;;;;;;;;765068;182;1021684;-67
2021/10/23 08:01:17;;;;;;;4.57;2.50;;;;;;;;;;769049;181;918954;-68
2021/10/23 08:03:43;;;;;;;6.97;3.00;;;;;;;;;;771527;181;917864;-66
2021/10/23 08:06:09;;;;;;;6.60;2.90;;;;;;;;;;767665;182;919418;-67
2021/10/23 08:08:34;;;;;;;11.03;3.10;;;;;;;;;;764830;182;918692;-66
2021/10/23 08:11:01;;;;;;;18.80;3.67;;;;;;;;;;770179;182;919459;-66
2021/10/23 08:13:27;;;;;;;12.07;3.00;;;;;;;;;;771375;182;919506;-67
2021/10/23 08:15:53;;;;;;;5.53;2.50;;;;;;;;;;764947;182;920701;-66
2021/10/23 08:18:19;;;;;;;8.60;2.80;;;;;;;;;;767632;182;919059;-68
2021/10/23 08:20:45;;;;;;;9.13;2.73;;;;;;;;;;768348;182;1022031;-67
2021/10/23 08:23:10;;;;;;;6.27;2.63;;;;;;;;;;769531;182;919430;-66
2021/10/23 08:25:36;;;;;;;13.37;4.13;;;;;;;;;;768050;182;918699;-68
2021/10/23 08:28:02;;;;;;;5.70;2.27;;;;;;;;;;766673;182;920103;-66
2021/10/23 08:30:28;;;;;;;15.98;3.22;;;;;;;;;;772217;182;919077;-68
2021/10/23 08:32:54;;;;;;;6.93;2.10;;;;;;;;;;766488;182;947538;-67
2021/10/23 08:35:20;;;;;;;10.13;2.33;;;;;;;;;;769140;182;917570;-66
2021/10/23 08:37:45;;;;;;;7.23;2.10;;;;;;;;;;775883;182;916642;-67
2021/10/23 08:40:12;;;;;;;4.30;2.10;;;;;;;;;;762760;182;915465;-68
2021/10/23 08:42:37;;;;;;;12.87;2.40;;;;;;;;;;768984;182;916456;-67
2021/10/23 08:45:04;;;;;;;10.40;2.60;;;;;;;;;;775635;179;915666;-66
2021/10/23 08:47:30;;;;;;;7.33;4.43;;;;;;;;;;765689;182;920017;-67
2021/10/23 08:52:49;;;;;;;5.53;2.20;;;;;;;;;;770096;183;27019;-86
2021/10/23 08:55:14;;;;;;;4.20;1.97;;;;;;;;;;766621;178;1022393;-68
2021/10/23 08:57:40;;;;;;;6.80;2.27;;;;;;;;;;775147;179;924149;-67
2021/10/23 09:00:07;;;;;;;3.03;1.97;;;;;;;;;;764152;183;931100;-67
2021/10/23 09:02:32;;;;;;;7.47;2.60;;;;;;;;;;764567;183;919424;-67
2021/10/23 09:04:59;;;;;;;5.90;2.20;;;;;;;;;;768550;183;919608;-66
2021/10/23 09:07:25;;;;;;;8.97;2.73;;;;;;;;;;765417;182;954771;-67
2021/10/23 09:09:53;;;;;;;14.43;2.50;;;;;;;;;;764588;183;920197;-68
2021/10/23 09:12:20;;;;;;;5.27;2.20;;;;;;;;;;765035;181;919394;-67
2021/10/23 09:14:45;;;;;;;10.10;2.35;;;;;;;;;;770730;182;918338;-68
2021/10/23 09:17:12;;;;;;;5.23;2.40;;;;;;;;;;768035;182;950665;-67
2021/10/23 09:19:39;;;;;;;5.90;2.27;;;;;;;;;;765201;182;925994;-68
2021/10/23 09:22:05;;;;;;;6.20;2.53;;;;;;;;;;769702;183;919563;-67
2021/10/23 09:24:31;;;;;;;4.80;2.23;;;;;;;;;;759696;183;919981;-67
2021/10/23 09:26:56;;;;;;;5.70;1.97;;;;;;;;;;766446;183;919921;-67
2021/10/23 09:29:24;;;;;;;5.50;1.97;;;;;;;;;;765621;183;919725;-67
2021/10/23 09:31:51;;;;;;;8.27;2.83;;;;;;;;;;769503;183;916347;-68
2021/10/23 09:34:17;;;;;;;12.90;2.17;;;;;;;;;;766016;183;1021091;-68
2021/10/23 09:36:48;;;;;;;7.73;2.80;;;;;;;;;;764527;183;918909;-67
2021/10/23 09:39:13;;;;;;;8.67;3.20;;;;;;;;;;770940;183;919418;-68
2021/10/23 09:41:39;;;;;;;4.50;2.20;;;;;;;;;;764272;183;918724;-67
2021/10/23 09:44:22;;;;;;;5.87;2.10;;;;;;;;;;763541;183;918999;-68
2021/10/23 09:46:50;;;;;;;7.00;2.50;;;;;;;;;;762382;183;919470;-69
2021/10/23 09:49:15;;;;;;;8.05;2.30;;;;;;;;;;762423;183;1021302;-68
2021/10/23 09:51:41;;;;;;;6.10;2.30;;;;;;;;;;769976;183;1019950;-68
2021/10/23 09:54:07;;;;;;;11.33;3.07;;;;;;;;;;763672;183;919055;-67
2021/10/23 09:56:33;;;;;;;5.50;2.40;;;;;;;;;;765312;183;1021131;-67
2021/10/23 09:58:59;;;;;;;7.33;3.27;;;;;;;;;;769575;183;919105;-67
2021/10/23 10:01:26;;;;;;;6.83;3.00;;;;;;;;;;765492;183;919246;-68
2021/10/23 10:03:52;;;;;;;4.77;2.47;;;;;;;;;;763249;183;917947;-67
2021/10/23 10:06:18;;;;;;;6.90;2.03;;;;;;;;;;764801;183;920170;-67
2021/10/23 10:08:44;;;;;;;7.47;2.67;;;;;;;;;;757266;183;1021327;-67
2021/10/23 10:11:11;;;;;;;4.37;2.10;;;;;;;;;;760021;183;920452;-68
2021/10/23 10:13:36;;;;;;;7.63;2.00;;;;;;;;;;763395;183;919604;-68
2021/10/23 10:16:02;;;;;;;3.80;1.50;;;;;;;;;;768363;183;920916;-70
2021/10/23 10:18:29;;;;;;;2.93;1.77;;;;;;;;;;762926;183;920410;-67
2021/10/23 10:20:56;;;;;;;7.15;2.00;;;;;;;;;;762758;183;1013678;-70
2021/10/23 10:23:21;;;;;;;11.67;2.07;;;;;;;;;;767625;181;917823;-67
2021/10/23 10:25:53;;;;;;;6.37;2.10;;;;;;;;;;762279;182;915425;-69
2021/10/23 10:28:18;;;;;;;4.13;1.90;;;;;;;;;;762868;182;919669;-68
2021/10/23 10:30:47;;;;;;;11.53;2.27;;;;;;;;;;765357;183;998728;-69
2021/10/23 10:33:16;;;;;;;3.53;1.97;;;;;;;;;;772446;183;817380;-69
2021/10/23 10:35:56;;;;;;;17.77;4.00;;;;;;;;;;763303;183;911713;-68
2021/10/23 10:38:23;;;;;;;14.03;3.07;;;;;;;;;;764394;183;911429;-68
2021/10/23 10:43:18;;;;;;;10.63;2.40;;;;;;;;;;761953;183;908494;-70
2021/10/23 10:45:53;;;;;;;7.33;2.90;;;;;;;;;;770195;182;914928;-68
2021/10/23 10:48:37;;;;;;;6.57;2.30;;;;;;;;;;766635;183;915662;-68
2021/10/23 10:51:20;;;;;;;5.57;2.27;;;;;;;;;;765993;183;930041;-68
2021/10/23 10:54:05;;;;;;;7.60;2.00;;;;;;;;;;767162;183;1123598;-71
2021/10/23 10:56:48;;;;;;;7.53;2.77;;;;;;;;;;772690;183;644826;-68
2021/10/23 10:59:13;;;;;;;10.60;2.00;;;;;;;;;;771898;183;617333;-69
2021/10/23 11:01:38;;;;;;;8.50;2.13;;;;;;;;;;768677;183;645350;-69
2021/10/23 11:04:06;;;;;;;10.43;2.57;;;;;;;;;;768261;183;913258;-69
2021/10/23 11:06:49;;;;;;;12.90;2.27;;;;;;;;;;771557;183;890675;-70
2021/10/23 11:09:30;;;;;;;11.13;3.60;;;;;;;;;;768953;183;919315;-69
2021/10/23 11:12:11;;;;;;;6.17;2.00;;;;;;;;;;769275;183;917403;-68
2021/10/23 11:14:37;;;;;;;9.00;2.53;;;;;;;;;;769487;183;904453;-70
2021/10/23 11:17:18;;;;;;;5.40;2.00;;;;;;;;;;761137;183;921733;-68
2021/10/23 11:19:44;;;;;;;4.43;1.87;;;;;;;;;;764703;183;917451;-68
2021/10/23 11:22:21;;;;;;;5.93;2.25;;;;;;;;;;764092;183;919339;-67
2021/10/23 11:24:48;;;;;;;9.23;1.90;;;;;;;;;;764721;183;918776;-68
2021/10/23 11:27:19;;;;;;;5.77;2.00;;;;;;;;;;767468;183;919395;-69
2021/10/23 11:29:45;;;;;;;8.93;2.20;;;;;;;;;;763658;183;919290;-68
2021/10/23 11:32:11;;;;;;;7.13;2.40;;;;;;;;;;761451;183;919104;-69
2021/10/23 11:34:37;;;;;;;8.00;2.30;;;;;;;;;;769494;183;918579;-69
2021/10/23 11:37:04;;;;;;;7.10;2.60;;;;;;;;;;766411;180;918846;-69
2021/10/23 11:39:34;;;;;;;6.03;2.13;;;;;;;;;;764693;182;918763;-69
2021/10/23 11:41:56;;;;;;;14.40;2.90;;;;;;;;;;765637;183;919862;-69
2021/10/23 11:44:26;;;;;;;5.15;2.00;;;;;;;;;;771284;183;920225;-68
2021/10/23 11:46:56;;;;;;;8.90;2.20;;;;;;;;;;765378;183;923035;-69
2021/10/23 11:49:22;;;;;;;9.60;2.50;;;;;;;;;;763568;183;918463;-69
2021/10/23 11:51:51;;;;;;;5.60;2.60;;;;;;;;;;763687;182;916095;-70
2021/10/23 11:54:16;;;;;;;5.70;2.73;;;;;;;;;;770778;183;915822;-69
2021/10/23 11:56:47;;;;;;;6.53;2.03;;;;;;;;;;765699;183;916743;-68
2021/10/23 11:59:13;;;;;;;5.83;2.20;;;;;;;;;;764585;183;919170;-69
2021/10/23 12:01:39;;;;;;;5.97;2.30;;;;;;;;;;769516;183;918653;-69
2021/10/23 12:04:05;;;;;;;12.33;2.60;;;;;;;;;;765259;183;915500;-70
2021/10/23 12:06:38;;;;;;;9.13;2.27;;;;;;;;;;764246;183;918212;-69
2021/10/23 12:09:10;;;;;;;6.43;2.50;;;;;;;;;;763687;183;1020849;-69
2021/10/23 12:11:36;;;;;;;6.20;2.00;;;;;;;;;;767844;183;919567;-67
2021/10/23 12:14:02;;;;;;;5.70;2.30;;;;;;;;;;773710;180;914361;-69
2021/10/23 12:16:34;;;;;;;4.77;2.00;;;;;;;;;;763646;183;914282;-71
2021/10/23 12:19:16;;;;;;;6.60;1.80;;;;;;;;;;767069;183;916505;-70
2021/10/23 12:21:44;;;;;;;6.60;2.20;;;;;;;;;;756673;183;919458;-69
2021/10/23 12:24:11;;;;;;;3.37;1.43;;;;;;;;;;769147;183;1017028;-69
2021/10/23 12:26:37;;;;;;;8.43;2.40;;;;;;;;;;763539;183;919563;-69
2021/10/23 12:29:04;;;;;;;8.80;2.63;;;;;;;;;;762862;182;1320179;-70
2021/10/23 12:31:36;;;;;;;5.83;2.17;;;;;;;;;;765356;183;960502;-69
2021/10/23 12:34:02;;;;;;;6.20;1.80;;;;;;;;;;772722;183;816462;-70
2021/10/23 12:36:28;;;;;;;6.97;1.80;;;;;;;;;;764196;183;919002;-69
2021/10/23 12:38:54;;;;;;;6.03;2.40;;;;;;;;;;765082;183;919001;-68
2021/10/23 12:41:19;;;;;;;6.60;1.50;;;;;;;;;;769419;183;918827;-70
2021/10/23 12:43:45;;;;;;;7.37;2.40;;;;;;;;;;764278;183;918614;-69
2021/10/23 12:46:12;;;;;;;5.60;1.90;;;;;;;;;;764761;183;918470;-71
2021/10/23 12:48:37;;;;;;;10.03;2.77;;;;;;;;;;765574;181;919858;-69
2021/10/23 12:51:03;;;;;;;12.67;2.40;;;;;;;;;;771582;182;924948;-69
2021/10/23 12:53:29;;;;;;;5.03;2.03;;;;;;;;;;769013;183;917878;-69
2021/10/23 12:55:55;;;;;;;10.47;2.40;;;;;;;;;;771133;182;647678;-69
2021/10/23 12:58:20;;;;;;;7.70;2.20;;;;;;;;;;772772;183;618154;-69
2021/10/23 13:00:48;;;;;;;6.10;2.13;;;;;;;;;;761396;183;1021194;-72
2021/10/23 13:03:12;;;;;;;5.93;2.13;;;;;;;;;;764988;183;919317;-69
2021/10/23 13:05:39;;;;;;;7.43;2.80;;;;;;;;;;772781;183;925884;-70
2021/10/23 13:08:04;;;;;;;12.00;3.20;;;;;;;;;;767792;183;918645;-70
2021/10/23 13:10:30;;;;;;;6.70;2.87;;;;;;;;;;765280;183;919370;-69
2021/10/23 13:12:57;;;;;;;4.33;1.90;;;;;;;;;;764183;183;918744;-68
2021/10/23 13:15:22;;;;;;;4.12;2.08;;;;;;;;;;770901;183;918237;-69
2021/10/23 13:17:48;;;;;;;6.80;2.57;;;;;;;;;;763279;183;918403;-70
2021/10/23 13:20:14;;;;;;;7.07;2.50;;;;;;;;;;763728;183;919734;-69
2021/10/23 13:22:39;;;;;;;7.80;1.90;;;;;;;;;;770190;183;918834;-70
2021/10/23 13:25:06;;;;;;;4.27;1.67;;;;;;;;;;768280;183;923936;-70
2021/10/23 13:27:32;;;;;;;12.10;2.33;;;;;;;;;;765456;183;927134;-69
2021/10/23 13:29:57;;;;;;;4.90;2.07;;;;;;;;;;768111;183;918678;-71
2021/10/23 13:32:23;;;;;;;9.13;2.10;;;;;;;;;;763624;183;919224;-69
2021/10/23 13:34:49;;;;;;;6.65;2.05;;;;;;;;;;755661;183;2044512;-69
2021/10/23 13:37:15;;;;;;;6.93;2.43;;;;;;;;;;763240;183;919334;-69
2021/10/23 13:39:41;;;;;;;4.60;2.40;;;;;;;;;;771384;180;918979;-69
2021/10/23 13:42:07;;;;;;;11.00;2.90;;;;;;;;;;763607;183;919610;-68
2021/10/23 13:44:33;;;;;;;8.07;2.50;;;;;;;;;;763965;183;919425;-68
2021/10/23 13:46:58;;;;;;;11.02;2.70;;;;;;;;;;771251;183;919777;-69
2021/10/23 13:49:25;;;;;;;7.57;2.93;;;;;;;;;;763265;183;1018626;-70
2021/10/23 13:51:50;;;;;;;5.87;2.43;;;;;;;;;;768420;183;621991;-69
2021/10/23 13:54:16;;;;;;;11.93;3.00;;;;;;;;;;771711;183;614634;-68
2021/10/23 13:56:42;;;;;;;9.00;3.10;;;;;;;;;;764566;183;918385;-70
2021/10/23 13:59:08;;;;;;;12.57;2.62;;;;;;;;;;768298;181;918494;-67
2021/10/23 14:01:34;;;;;;;9.13;2.12;;;;;;;;;;770769;182;917859;-68
2021/10/23 14:03:59;;;;;;;7.77;2.37;;;;;;;;;;766793;182;918902;-69
2021/10/23 14:06:25;;;;;;;8.10;3.30;;;;;;;;;;764078;183;920475;-68
2021/10/23 14:08:51;;;;;;;3.30;1.90;;;;;;;;;;766922;183;918708;-68
2021/10/23 14:11:17;;;;;;;10.30;2.00;;;;;;;;;;772851;183;629110;-68
2021/10/23 14:13:43;;;;;;;5.93;2.77;;;;;;;;;;768969;183;899552;-68
2021/10/23 14:16:10;;;;;;;6.63;1.80;;;;;;;;;;764133;183;918517;-69
2021/10/23 14:18:36;;;;;;;7.60;2.60;;;;;;;;;;768147;183;919449;-67
2021/10/23 14:21:03;;;;;;;8.68;2.25;;;;;;;;;;765634;183;918102;-68
2021/10/23 14:23:28;;;;;;;5.37;2.87;;;;;;;;;;766569;183;919584;-68
2021/10/23 14:25:55;;;;;;;7.15;2.12;;;;;;;;;;770616;183;918080;-68
2021/10/23 14:30:52;;;;;;;9.23;3.10;;;;;;;;;;764433;183;923833;-68